sensor_id;sensor_type;location;lat;lon;timestamp;pressure;altitude;pressure_sealevel;temperature;humidity
19005;BME280;9635;52.078;8.648;2024-03-08T00:01:16;100946.56;;;1.92;67.81
19005;BME280;9635;52.078;8.648;2024-03-08T00:06:21;100949.25;;;1.91;68.20
19005;BME280;9635;52.078;8.648;2024-03-08T00:11:24;100937.81;;;1.89;68.28
19005;BME280;9635;52.078;8.648;2024-03-08T00:16:29;100938.00;;;1.84;68.95
19005;BME280;9635;52.078;8.648;2024-03-08T00:21:52;100937.09;;;1.85;69.25
19005;BME280;9635;52.078;8.648;2024-03-08T00:26:57;100936.97;;;1.88;69.07
19005;BME280;9635;52.078;8.648;2024-03-08T00:32:00;100936.97;;;1.88;68.77
19005;BME280;9635;52.078;8.648;2024-03-08T00:37:05;100936.06;;;1.89;68.77
19005;BME280;9635;52.078;8.648;2024-03-08T00:42:09;100935.47;;;1.81;68.82
19005;BME280;9635;52.078;8.648;2024-03-08T00:47:12;100927.56;;;1.80;69.13
19005;BME280;9635;52.078;8.648;2024-03-08T00:52:16;100924.19;;;1.76;69.26
19005;BME280;9635;52.078;8.648;2024-03-08T00:57:20;100919.84;;;1.73;69.53
19005;BME280;9635;52.078;8.648;2024-03-08T01:02:24;100918.03;;;1.76;69.35
19005;BME280;9635;52.078;8.648;2024-03-08T01:07:28;100910.16;;;1.72;69.10
19005;BME280;9635;52.078;8.648;2024-03-08T01:12:32;100905.91;;;1.68;69.58
19005;BME280;9635;52.078;8.648;2024-03-08T01:17:36;100905.81;;;1.70;69.49
19005;BME280;9635;52.078;8.648;2024-03-08T01:22:41;100891.53;;;1.76;69.30
19005;BME280;9635;52.078;8.648;2024-03-08T01:27:44;100880.88;;;1.77;68.94
19005;BME280;9635;52.078;8.648;2024-03-08T01:32:47;100877.00;;;1.86;68.63
19005;BME280;9635;52.078;8.648;2024-03-08T01:37:52;100861.97;;;1.86;68.59
19005;BME280;9635;52.078;8.648;2024-03-08T01:42:55;100853.16;;;1.86;68.21
19005;BME280;9635;52.078;8.648;2024-03-08T01:47:57;100847.25;;;1.79;68.62
19005;BME280;9635;52.078;8.648;2024-03-08T01:53:03;100844.75;;;1.75;68.72
19005;BME280;9635;52.078;8.648;2024-03-08T01:58:06;100845.09;;;1.65;68.88
19005;BME280;9635;52.078;8.648;2024-03-08T02:03:12;100834.19;;;1.49;69.55
19005;BME280;9635;52.078;8.648;2024-03-08T02:08:17;100837.94;;;1.44;69.96
19005;BME280;9635;52.078;8.648;2024-03-08T02:13:20;100834.34;;;1.45;69.86
19005;BME280;9635;52.078;8.648;2024-03-08T02:18:23;100837.00;;;1.45;70.06
19005;BME280;9635;52.078;8.648;2024-03-08T02:23:28;100825.78;;;1.38;69.96
19005;BME280;9635;52.078;8.648;2024-03-08T02:28:31;100820.72;;;1.32;70.19
19005;BME280;9635;52.078;8.648;2024-03-08T02:33:35;100819.28;;;1.22;69.91
19005;BME280;9635;52.078;8.648;2024-03-08T02:38:40;100807.91;;;1.20;69.81
19005;BME280;9635;52.078;8.648;2024-03-08T02:43:43;100800.66;;;1.25;69.48
19005;BME280;9635;52.078;8.648;2024-03-08T02:48:47;100800.38;;;1.33;69.21
19005;BME280;9635;52.078;8.648;2024-03-08T02:53:51;100799.47;;;1.34;68.71
19005;BME280;9635;52.078;8.648;2024-03-08T02:58:54;100796.66;;;1.38;68.09
19005;BME280;9635;52.078;8.648;2024-03-08T03:03:58;100786.19;;;1.35;67.85
19005;BME280;9635;52.078;8.648;2024-03-08T03:09:02;100788.16;;;1.28;67.71
19005;BME280;9635;52.078;8.648;2024-03-08T03:14:08;100779.13;;;1.34;67.55
19005;BME280;9635;52.078;8.648;2024-03-08T03:19:11;100779.59;;;1.22;67.86
19005;BME280;9635;52.078;8.648;2024-03-08T03:24:15;100761.22;;;1.17;68.22
19005;BME280;9635;52.078;8.648;2024-03-08T03:29:19;100766.72;;;1.13;68.49
19005;BME280;9635;52.078;8.648;2024-03-08T03:34:22;100757.84;;;1.14;68.52
19005;BME280;9635;52.078;8.648;2024-03-08T03:39:27;100757.72;;;1.17;68.12
19005;BME280;9635;52.078;8.648;2024-03-08T03:44:33;100752.50;;;1.15;67.93
19005;BME280;9635;52.078;8.648;2024-03-08T03:49:36;100743.41;;;1.22;67.56
19005;BME280;9635;52.078;8.648;2024-03-08T03:54:40;100744.97;;;1.28;67.33
19005;BME280;9635;52.078;8.648;2024-03-08T03:59:44;100740.59;;;1.27;67.22
19005;BME280;9635;52.078;8.648;2024-03-08T04:04:47;100729.31;;;1.22;67.63
19005;BME280;9635;52.078;8.648;2024-03-08T04:09:52;100731.97;;;1.22;67.42
19005;BME280;9635;52.078;8.648;2024-03-08T04:14:55;100730.91;;;1.26;67.28
19005;BME280;9635;52.078;8.648;2024-03-08T04:19:58;100728.69;;;1.15;67.58
19005;BME280;9635;52.078;8.648;2024-03-08T04:25:03;100724.31;;;0.89;68.60
19005;BME280;9635;52.078;8.648;2024-03-08T04:30:07;100715.91;;;0.78;69.31
19005;BME280;9635;52.078;8.648;2024-03-08T04:35:11;100706.50;;;0.69;69.72
19005;BME280;9635;52.078;8.648;2024-03-08T04:40:16;100706.28;;;0.50;70.52
19005;BME280;9635;52.078;8.648;2024-03-08T04:45:20;100703.19;;;0.37;71.24
19005;BME280;9635;52.078;8.648;2024-03-08T04:50:23;100697.97;;;0.36;71.73
19005;BME280;9635;52.078;8.648;2024-03-08T04:55:28;100697.19;;;0.32;71.58
19005;BME280;9635;52.078;8.648;2024-03-08T05:00:31;100692.97;;;0.27;72.24
19005;BME280;9635;52.078;8.648;2024-03-08T05:05:34;100679.41;;;0.37;72.49
19005;BME280;9635;52.078;8.648;2024-03-08T05:10:39;100670.56;;;0.38;72.26
19005;BME280;9635;52.078;8.648;2024-03-08T05:15:43;100666.41;;;0.31;72.28
19005;BME280;9635;52.078;8.648;2024-03-08T05:20:46;100667.63;;;0.21;72.92
19005;BME280;9635;52.078;8.648;2024-03-08T05:25:51;100670.31;;;0.20;73.39
19005;BME280;9635;52.078;8.648;2024-03-08T05:30:54;100674.78;;;0.17;73.66
19005;BME280;9635;52.078;8.648;2024-03-08T05:35:58;100667.06;;;0.11;74.07
19005;BME280;9635;52.078;8.648;2024-03-08T05:41:03;100671.53;;;0.09;74.15
19005;BME280;9635;52.078;8.648;2024-03-08T05:46:07;100656.44;;;0.13;74.39
19005;BME280;9635;52.078;8.648;2024-03-08T05:51:10;100656.91;;;0.26;73.90
19005;BME280;9635;52.078;8.648;2024-03-08T05:56:15;100664.56;;;0.33;73.11
19005;BME280;9635;52.078;8.648;2024-03-08T06:01:18;100657.25;;;0.42;73.23
19005;BME280;9635;52.078;8.648;2024-03-08T06:06:22;100662.63;;;0.38;72.71
19005;BME280;9635;52.078;8.648;2024-03-08T06:11:27;100660.50;;;0.50;72.47
19005;BME280;9635;52.078;8.648;2024-03-08T06:16:32;100665.78;;;0.50;72.28
19005;BME280;9635;52.078;8.648;2024-03-08T06:21:37;100661.94;;;0.58;72.21
19005;BME280;9635;52.078;8.648;2024-03-08T06:26:42;100658.97;;;0.68;72.21
19005;BME280;9635;52.078;8.648;2024-03-08T06:31:45;100663.72;;;0.83;71.80
19005;BME280;9635;52.078;8.648;2024-03-08T06:36:48;100664.75;;;1.02;70.92
19005;BME280;9635;52.078;8.648;2024-03-08T06:41:52;100663.16;;;1.22;69.90
19005;BME280;9635;52.078;8.648;2024-03-08T06:46:56;100657.22;;;1.61;72.53
19005;BME280;9635;52.078;8.648;2024-03-08T06:52:01;100662.09;;;2.15;69.13
19005;BME280;9635;52.078;8.648;2024-03-08T06:57:07;100659.56;;;2.75;65.76
19005;BME280;9635;52.078;8.648;2024-03-08T07:02:12;100655.72;;;3.01;63.72
19005;BME280;9635;52.078;8.648;2024-03-08T07:07:15;100660.06;;;3.42;62.31
19005;BME280;9635;52.078;8.648;2024-03-08T07:12:19;100663.66;;;3.60;60.08
19005;BME280;9635;52.078;8.648;2024-03-08T07:17:25;100662.00;;;3.57;59.17
19005;BME280;9635;52.078;8.648;2024-03-08T07:22:27;100672.78;;;3.54;59.04
19005;BME280;9635;52.078;8.648;2024-03-08T07:27:32;100664.66;;;3.57;59.21
19005;BME280;9635;52.078;8.648;2024-03-08T07:38:13;100663.91;;;3.72;58.75
19005;BME280;9635;52.078;8.648;2024-03-08T07:43:19;100651.13;;;3.81;58.09
19005;BME280;9635;52.078;8.648;2024-03-08T07:48:23;100650.44;;;3.77;57.97
19005;BME280;9635;52.078;8.648;2024-03-08T07:53:27;100641.25;;;4.02;57.50
19005;BME280;9635;52.078;8.648;2024-03-08T07:58:31;100640.09;;;4.07;57.04
19005;BME280;9635;52.078;8.648;2024-03-08T08:03:36;100632.56;;;4.33;56.35
19005;BME280;9635;52.078;8.648;2024-03-08T08:08:41;100630.31;;;4.43;55.90
19005;BME280;9635;52.078;8.648;2024-03-08T08:13:45;100637.09;;;4.83;55.03
19005;BME280;9635;52.078;8.648;2024-03-08T08:18:48;100637.94;;;5.01;54.33
19005;BME280;9635;52.078;8.648;2024-03-08T08:23:52;100631.38;;;5.24;53.65
19005;BME280;9635;52.078;8.648;2024-03-08T08:28:58;100624.06;;;5.27;53.12
19005;BME280;9635;52.078;8.648;2024-03-08T08:34:01;100623.03;;;5.62;52.58
19005;BME280;9635;52.078;8.648;2024-03-08T08:39:04;100614.22;;;5.91;51.83
19005;BME280;9635;52.078;8.648;2024-03-08T08:44:15;100608.28;;;5.86;51.92
19005;BME280;9635;52.078;8.648;2024-03-08T08:49:18;100605.41;;;6.05;51.55
19005;BME280;9635;52.078;8.648;2024-03-08T08:54:22;100603.72;;;6.49;50.88
19005;BME280;9635;52.078;8.648;2024-03-08T08:59:28;100592.28;;;6.47;50.61
19005;BME280;9635;52.078;8.648;2024-03-08T09:04:32;100594.59;;;6.67;50.19
19005;BME280;9635;52.078;8.648;2024-03-08T09:09:35;100582.47;;;7.33;49.16
19005;BME280;9635;52.078;8.648;2024-03-08T09:14:39;100570.53;;;7.66;48.78
19005;BME280;9635;52.078;8.648;2024-03-08T09:19:43;100561.94;;;7.34;48.30
19005;BME280;9635;52.078;8.648;2024-03-08T09:24:46;100561.06;;;7.75;47.59
19005;BME280;9635;52.078;8.648;2024-03-08T09:29:51;100558.09;;;7.79;47.98
19005;BME280;9635;52.078;8.648;2024-03-08T09:34:54;100550.06;;;7.92;47.62
19005;BME280;9635;52.078;8.648;2024-03-08T09:39:57;100528.41;;;7.42;47.61
19005;BME280;9635;52.078;8.648;2024-03-08T09:45:03;100514.50;;;7.64;47.47
19005;BME280;9635;52.078;8.648;2024-03-08T09:50:08;100501.53;;;8.24;46.48
19005;BME280;9635;52.078;8.648;2024-03-08T09:55:12;100499.66;;;8.64;46.19
19005;BME280;9635;52.078;8.648;2024-03-08T10:00:17;100496.19;;;9.12;45.83
19005;BME280;9635;52.078;8.648;2024-03-08T10:05:26;100480.34;;;9.09;45.55
19005;BME280;9635;52.078;8.648;2024-03-08T10:10:29;100470.16;;;9.73;44.73
19005;BME280;9635;52.078;8.648;2024-03-08T10:15:33;100463.75;;;9.87;43.77
19005;BME280;9635;52.078;8.648;2024-03-08T10:20:36;100460.34;;;9.85;43.96
19005;BME280;9635;52.078;8.648;2024-03-08T10:25:39;100451.16;;;10.23;42.87
19005;BME280;9635;52.078;8.648;2024-03-08T10:30:48;100444.22;;;10.54;42.86
19005;BME280;9635;52.078;8.648;2024-03-08T10:35:51;100441.16;;;10.47;42.61
19005;BME280;9635;52.078;8.648;2024-03-08T10:40:54;100438.72;;;10.78;42.11
19005;BME280;9635;52.078;8.648;2024-03-08T10:46:14;100420.91;;;11.09;42.40
19005;BME280;9635;52.078;8.648;2024-03-08T10:51:25;100416.38;;;11.10;41.03
19005;BME280;9635;52.078;8.648;2024-03-08T10:56:28;100418.59;;;11.16;41.31
19005;BME280;9635;52.078;8.648;2024-03-08T11:07:12;100407.75;;;12.01;39.74
19005;BME280;9635;52.078;8.648;2024-03-08T11:12:21;100395.94;;;12.94;37.99
19005;BME280;9635;52.078;8.648;2024-03-08T11:17:41;100384.63;;;13.59;37.61
19005;BME280;9635;52.078;8.648;2024-03-08T11:22:53;100378.38;;;13.58;37.71
19005;BME280;9635;52.078;8.648;2024-03-08T11:28:07;100375.94;;;13.16;37.15
19005;BME280;9635;52.078;8.648;2024-03-08T11:33:14;100362.03;;;13.21;37.76
19005;BME280;9635;52.078;8.648;2024-03-08T11:38:19;100346.13;;;13.57;37.09
19005;BME280;9635;52.078;8.648;2024-03-08T11:43:22;100344.31;;;13.47;37.05
19005;BME280;9635;52.078;8.648;2024-03-08T11:48:26;100350.91;;;12.25;38.12
19005;BME280;9635;52.078;8.648;2024-03-08T11:53:30;100335.75;;;12.74;37.63
19005;BME280;9635;52.078;8.648;2024-03-08T11:58:34;100324.13;;;13.32;36.48
19005;BME280;9635;52.078;8.648;2024-03-08T12:03:38;100290.00;;;14.07;35.31
19005;BME280;9635;52.078;8.648;2024-03-08T12:08:42;100288.84;;;14.37;35.39
19005;BME280;9635;52.078;8.648;2024-03-08T12:13:45;100284.34;;;14.92;35.10
19005;BME280;9635;52.078;8.648;2024-03-08T12:18:52;100282.19;;;14.59;34.72
19005;BME280;9635;52.078;8.648;2024-03-08T12:24:04;100276.53;;;13.98;36.82
19005;BME280;9635;52.078;8.648;2024-03-08T12:29:17;100254.31;;;13.39;36.94
19005;BME280;9635;52.078;8.648;2024-03-08T12:34:22;100258.94;;;14.21;35.86
19005;BME280;9635;52.078;8.648;2024-03-08T12:39:26;100243.88;;;13.63;36.43
19005;BME280;9635;52.078;8.648;2024-03-08T12:44:30;100239.72;;;13.69;36.74
19005;BME280;9635;52.078;8.648;2024-03-08T12:49:32;100236.09;;;13.31;36.51
19005;BME280;9635;52.078;8.648;2024-03-08T12:54:37;100224.09;;;13.63;36.55
19005;BME280;9635;52.078;8.648;2024-03-08T12:59:40;100205.22;;;14.18;37.73
19005;BME280;9635;52.078;8.648;2024-03-08T13:04:44;100193.19;;;17.04;33.26
19005;BME280;9635;52.078;8.648;2024-03-08T13:09:48;100190.97;;;16.92;33.25
19005;BME280;9635;52.078;8.648;2024-03-08T13:14:52;100183.00;;;16.33;33.79
19005;BME280;9635;52.078;8.648;2024-03-08T13:19:58;100172.28;;;16.31;33.44
19005;BME280;9635;52.078;8.648;2024-03-08T13:25:03;100164.84;;;17.23;32.54
19005;BME280;9635;52.078;8.648;2024-03-08T13:30:07;100152.63;;;17.03;32.39
19005;BME280;9635;52.078;8.648;2024-03-08T13:35:14;100140.28;;;17.64;32.45
19005;BME280;9635;52.078;8.648;2024-03-08T13:40:19;100129.59;;;18.02;31.64
19005;BME280;9635;52.078;8.648;2024-03-08T13:45:22;100126.81;;;17.40;32.34
19005;BME280;9635;52.078;8.648;2024-03-08T13:50:26;100129.13;;;18.68;30.56
19005;BME280;9635;52.078;8.648;2024-03-08T13:55:31;100119.44;;;17.57;31.66
19005;BME280;9635;52.078;8.648;2024-03-08T14:00:35;100107.97;;;18.09;31.82
19005;BME280;9635;52.078;8.648;2024-03-08T14:05:39;100095.53;;;18.14;31.44
19005;BME280;9635;52.078;8.648;2024-03-08T14:10:44;100072.78;;;17.84;31.95
19005;BME280;9635;52.078;8.648;2024-03-08T14:15:49;100057.81;;;17.88;31.64
19005;BME280;9635;52.078;8.648;2024-03-08T14:20:51;100059.34;;;17.12;32.49
19005;BME280;9635;52.078;8.648;2024-03-08T14:25:56;100042.56;;;15.37;34.48
19005;BME280;9635;52.078;8.648;2024-03-08T14:31:01;100057.22;;;15.00;35.39
19005;BME280;9635;52.078;8.648;2024-03-08T14:36:08;100034.22;;;15.97;35.02
19005;BME280;9635;52.078;8.648;2024-03-08T14:41:16;100034.06;;;16.48;34.03
19005;BME280;9635;52.078;8.648;2024-03-08T14:46:19;100018.53;;;17.45;33.16
19005;BME280;9635;52.078;8.648;2024-03-08T14:51:25;100011.47;;;17.28;33.38
19005;BME280;9635;52.078;8.648;2024-03-08T14:56:31;100010.88;;;16.37;33.61
19005;BME280;9635;52.078;8.648;2024-03-08T15:01:34;99992.16;;;15.44;34.80
19005;BME280;9635;52.078;8.648;2024-03-08T15:06:38;99980.19;;;15.63;35.01
19005;BME280;9635;52.078;8.648;2024-03-08T15:11:44;99982.13;;;13.89;36.98
19005;BME280;9635;52.078;8.648;2024-03-08T15:16:48;99980.66;;;13.59;38.49
19005;BME280;9635;52.078;8.648;2024-03-08T15:21:51;99972.38;;;13.25;38.23
19005;BME280;9635;52.078;8.648;2024-03-08T15:26:58;99968.56;;;13.18;39.63
19005;BME280;9635;52.078;8.648;2024-03-08T15:32:04;99965.94;;;12.43;39.70
19005;BME280;9635;52.078;8.648;2024-03-08T15:37:08;99963.59;;;12.58;40.51
19005;BME280;9635;52.078;8.648;2024-03-08T15:42:18;99962.56;;;12.69;41.17
19005;BME280;9635;52.078;8.648;2024-03-08T15:47:21;99952.78;;;12.40;41.96
19005;BME280;9635;52.078;8.648;2024-03-08T15:52:24;99947.88;;;11.87;43.08
19005;BME280;9635;52.078;8.648;2024-03-08T15:57:29;99952.41;;;11.38;43.96
19005;BME280;9635;52.078;8.648;2024-03-08T16:02:32;99945.19;;;11.67;43.99
19005;BME280;9635;52.078;8.648;2024-03-08T16:07:35;99936.56;;;11.54;44.20
19005;BME280;9635;52.078;8.648;2024-03-08T16:12:39;99942.28;;;10.60;45.94
19005;BME280;9635;52.078;8.648;2024-03-08T16:17:42;99945.31;;;10.77;45.96
19005;BME280;9635;52.078;8.648;2024-03-08T16:22:46;99955.38;;;10.84;46.46
19005;BME280;9635;52.078;8.648;2024-03-08T16:27:55;99936.31;;;10.88;46.32
19005;BME280;9635;52.078;8.648;2024-03-08T16:32:58;99946.25;;;10.26;47.51
19005;BME280;9635;52.078;8.648;2024-03-08T16:38:01;99941.72;;;10.05;48.13
19005;BME280;9635;52.078;8.648;2024-03-08T16:43:06;99938.91;;;9.86;48.89
19005;BME280;9635;52.078;8.648;2024-03-08T16:48:12;99935.81;;;9.37;50.00
19005;BME280;9635;52.078;8.648;2024-03-08T16:53:16;99941.59;;;9.21;50.73
19005;BME280;9635;52.078;8.648;2024-03-08T16:58:21;99936.81;;;8.81;51.50
19005;BME280;9635;52.078;8.648;2024-03-08T17:03:24;99928.44;;;8.52;52.25
19005;BME280;9635;52.078;8.648;2024-03-08T17:08:29;99928.44;;;8.52;52.75
19005;BME280;9635;52.078;8.648;2024-03-08T17:13:33;99928.16;;;8.22;53.48
19005;BME280;9635;52.078;8.648;2024-03-08T17:18:36;99918.88;;;8.03;54.03
19005;BME280;9635;52.078;8.648;2024-03-08T17:23:39;99923.34;;;7.80;55.30
19005;BME280;9635;52.078;8.648;2024-03-08T17:28:44;99908.38;;;7.66;55.57
19005;BME280;9635;52.078;8.648;2024-03-08T17:33:49;99911.19;;;7.41;56.44
19005;BME280;9635;52.078;8.648;2024-03-08T17:38:52;99902.97;;;7.20;57.12
19005;BME280;9635;52.078;8.648;2024-03-08T17:43:58;99901.47;;;7.16;57.59
19005;BME280;9635;52.078;8.648;2024-03-08T17:49:01;99904.97;;;7.05;57.63
19005;BME280;9635;52.078;8.648;2024-03-08T17:54:05;99899.81;;;7.02;57.86
19005;BME280;9635;52.078;8.648;2024-03-08T17:59:13;99901.94;;;7.10;57.64
19005;BME280;9635;52.078;8.648;2024-03-08T18:04:17;99904.25;;;6.90;58.16
19005;BME280;9635;52.078;8.648;2024-03-08T18:09:20;99900.31;;;6.83;58.71
19005;BME280;9635;52.078;8.648;2024-03-08T18:14:26;99893.31;;;6.69;58.98
19005;BME280;9635;52.078;8.648;2024-03-08T18:19:29;99887.84;;;6.71;58.89
19005;BME280;9635;52.078;8.648;2024-03-08T18:24:33;99883.41;;;6.58;59.29
19005;BME280;9635;52.078;8.648;2024-03-08T18:29:37;99891.28;;;6.60;59.25
19005;BME280;9635;52.078;8.648;2024-03-08T18:34:41;99887.25;;;6.54;59.52
19005;BME280;9635;52.078;8.648;2024-03-08T18:39:46;99895.41;;;6.53;59.08
19005;BME280;9635;52.078;8.648;2024-03-08T18:44:51;99897.41;;;6.49;59.39
19005;BME280;9635;52.078;8.648;2024-03-08T18:49:54;99888.91;;;6.31;59.71
19005;BME280;9635;52.078;8.648;2024-03-08T18:54:57;99891.81;;;6.28;59.88
19005;BME280;9635;52.078;8.648;2024-03-08T19:00:01;99882.00;;;6.16;60.32
19005;BME280;9635;52.078;8.648;2024-03-08T19:05:14;99878.16;;;6.20;60.40
19005;BME280;9635;52.078;8.648;2024-03-08T19:10:19;99882.75;;;6.18;60.44
19005;BME280;9635;52.078;8.648;2024-03-08T19:15:25;99885.28;;;6.20;60.37
19005;BME280;9635;52.078;8.648;2024-03-08T19:20:29;99877.72;;;6.13;60.22
19005;BME280;9635;52.078;8.648;2024-03-08T19:25:36;99872.81;;;6.07;60.19
19005;BME280;9635;52.078;8.648;2024-03-08T19:30:44;99877.09;;;6.10;59.84
19005;BME280;9635;52.078;8.648;2024-03-08T19:35:50;99866.88;;;6.04;59.98
19005;BME280;9635;52.078;8.648;2024-03-08T19:40:53;99867.09;;;6.01;60.00
19005;BME280;9635;52.078;8.648;2024-03-08T19:45:57;99870.28;;;5.93;59.86
19005;BME280;9635;52.078;8.648;2024-03-08T19:51:00;99873.59;;;5.97;59.56
19005;BME280;9635;52.078;8.648;2024-03-08T19:56:07;99872.75;;;5.96;59.66
19005;BME280;9635;52.078;8.648;2024-03-08T20:01:11;99869.75;;;5.88;59.61
19005;BME280;9635;52.078;8.648;2024-03-08T20:06:17;99867.63;;;5.80;60.12
19005;BME280;9635;52.078;8.648;2024-03-08T20:11:20;99866.66;;;5.68;60.23
19005;BME280;9635;52.078;8.648;2024-03-08T20:16:25;99862.06;;;5.58;60.72
19005;BME280;9635;52.078;8.648;2024-03-08T20:21:28;99858.66;;;5.56;60.64
19005;BME280;9635;52.078;8.648;2024-03-08T20:26:31;99852.34;;;5.57;61.01
19005;BME280;9635;52.078;8.648;2024-03-08T20:31:35;99853.53;;;5.53;60.80
19005;BME280;9635;52.078;8.648;2024-03-08T20:36:39;99844.22;;;5.45;61.24
19005;BME280;9635;52.078;8.648;2024-03-08T20:41:41;99853.91;;;5.34;61.65
19005;BME280;9635;52.078;8.648;2024-03-08T20:46:47;99827.16;;;5.22;62.11
19005;BME280;9635;52.078;8.648;2024-03-08T20:51:50;99822.91;;;5.20;62.40
19005;BME280;9635;52.078;8.648;2024-03-08T20:56:53;99817.78;;;5.17;62.56
19005;BME280;9635;52.078;8.648;2024-03-08T21:01:58;99803.97;;;5.24;62.29
19005;BME280;9635;52.078;8.648;2024-03-08T21:07:02;99792.63;;;5.21;62.48
19005;BME280;9635;52.078;8.648;2024-03-08T21:12:07;99784.66;;;5.21;62.64
19005;BME280;9635;52.078;8.648;2024-03-08T21:17:14;99771.00;;;5.13;62.76
19005;BME280;9635;52.078;8.648;2024-03-08T21:22:17;99782.75;;;5.10;63.04
19005;BME280;9635;52.078;8.648;2024-03-08T21:27:21;99771.56;;;5.18;62.76
19005;BME280;9635;52.078;8.648;2024-03-08T21:32:26;99766.00;;;5.21;62.88
19005;BME280;9635;52.078;8.648;2024-03-08T21:37:29;99764.22;;;5.21;62.93
19005;BME280;9635;52.078;8.648;2024-03-08T21:42:32;99758.56;;;5.26;62.77
19005;BME280;9635;52.078;8.648;2024-03-08T21:47:37;99750.50;;;5.27;62.71
19005;BME280;9635;52.078;8.648;2024-03-08T21:52:40;99742.91;;;5.09;63.19
19005;BME280;9635;52.078;8.648;2024-03-08T21:57:44;99743.75;;;5.09;63.17
19005;BME280;9635;52.078;8.648;2024-03-08T22:02:49;99741.41;;;5.17;63.00
19005;BME280;9635;52.078;8.648;2024-03-08T22:07:52;99742.16;;;5.06;63.44
19005;BME280;9635;52.078;8.648;2024-03-08T22:12:56;99737.59;;;5.09;63.40
19005;BME280;9635;52.078;8.648;2024-03-08T22:18:00;99731.34;;;4.95;63.71
19005;BME280;9635;52.078;8.648;2024-03-08T22:23:03;99732.78;;;5.01;63.48
19005;BME280;9635;52.078;8.648;2024-03-08T22:28:08;99733.03;;;4.96;64.04
19005;BME280;9635;52.078;8.648;2024-03-08T22:33:13;99726.03;;;4.95;63.96
19005;BME280;9635;52.078;8.648;2024-03-08T22:38:16;99718.00;;;4.82;64.48
19005;BME280;9635;52.078;8.648;2024-03-08T22:43:19;99728.16;;;4.77;64.70
19005;BME280;9635;52.078;8.648;2024-03-08T22:48:25;99731.03;;;4.87;64.16
19005;BME280;9635;52.078;8.648;2024-03-08T22:53:28;99727.72;;;4.83;64.54
19005;BME280;9635;52.078;8.648;2024-03-08T22:58:31;99728.31;;;4.74;64.91
19005;BME280;9635;52.078;8.648;2024-03-08T23:03:36;99734.19;;;4.67;65.13
19005;BME280;9635;52.078;8.648;2024-03-08T23:08:40;99715.22;;;4.58;65.96
19005;BME280;9635;52.078;8.648;2024-03-08T23:13:47;99715.84;;;4.62;65.86
19005;BME280;9635;52.078;8.648;2024-03-08T23:18:51;99713.50;;;4.57;66.19
19005;BME280;9635;52.078;8.648;2024-03-08T23:23:54;99715.00;;;4.61;66.08
19005;BME280;9635;52.078;8.648;2024-03-08T23:28:58;99720.34;;;4.61;65.79
19005;BME280;9635;52.078;8.648;2024-03-08T23:34:02;99713.31;;;4.73;65.54
19005;BME280;9635;52.078;8.648;2024-03-08T23:39:07;99714.25;;;4.59;66.14
19005;BME280;9635;52.078;8.648;2024-03-08T23:44:13;99711.16;;;4.53;66.33
19005;BME280;9635;52.078;8.648;2024-03-08T23:49:18;99724.75;;;4.48;66.58
19005;BME280;9635;52.078;8.648;2024-03-08T23:54:21;99715.16;;;4.46;66.78
19005;BME280;9635;52.078;8.648;2024-03-08T23:59:26;99720.22;;;4.36;66.91
